sensor_id;sensor_type;location;lat;lon;timestamp;pressure;altitude;pressure_sealevel;temperature;humidity
24336;BME280;33098;52.400;16.880;2022-11-25T00:01:11;100789.56;;;4.10;98.28
24336;BME280;33098;52.400;16.880;2022-11-25T00:03:39;100795.11;;;4.08;98.08
24336;BME280;33098;52.400;16.880;2022-11-25T00:06:20;100799.45;;;4.05;98.09
24336;BME280;33098;52.400;16.880;2022-11-25T00:08:50;100799.85;;;4.04;98.07
24336;BME280;33098;52.400;16.880;2022-11-25T00:11:17;100795.75;;;4.05;98.02
24336;BME280;33098;52.400;16.880;2022-11-25T00:13:45;100793.48;;;4.05;98.07
24336;BME280;33098;52.400;16.880;2022-11-25T00:16:17;100790.67;;;4.09;98.05
24336;BME280;33098;52.400;16.880;2022-11-25T00:18:50;100792.30;;;4.12;98.17
24336;BME280;33098;52.400;16.880;2022-11-25T00:21:19;100790.20;;;4.07;97.87
24336;BME280;33098;52.400;16.880;2022-11-25T00:24:14;100788.16;;;4.06;98.13
24336;BME280;33098;52.400;16.880;2022-11-25T00:26:40;100789.33;;;4.00;97.65
24336;BME280;33098;52.400;16.880;2022-11-25T00:29:09;100789.64;;;3.97;97.65
24336;BME280;33098;52.400;16.880;2022-11-25T00:31:38;100789.98;;;4.01;97.87
24336;BME280;33098;52.400;16.880;2022-11-25T00:34:05;100790.80;;;4.06;98.15
24336;BME280;33098;52.400;16.880;2022-11-25T00:36:35;100787.96;;;4.11;98.13
24336;BME280;33098;52.400;16.880;2022-11-25T00:39:05;100792.95;;;4.09;98.03
24336;BME280;33098;52.400;16.880;2022-11-25T00:41:32;100788.58;;;3.93;97.72
24336;BME280;33098;52.400;16.880;2022-11-25T00:44:20;100788.58;;;3.73;97.42
24336;BME280;33098;52.400;16.880;2022-11-25T00:47:17;100790.65;;;3.59;97.38
24336;BME280;33098;52.400;16.880;2022-11-25T00:49:48;100789.56;;;3.47;97.41
24336;BME280;33098;52.400;16.880;2022-11-25T00:52:17;100794.40;;;3.40;97.64
24336;BME280;33098;52.400;16.880;2022-11-25T00:54:48;100798.40;;;3.46;98.35
24336;BME280;33098;52.400;16.880;2022-11-25T00:57:21;100801.35;;;3.46;98.37
24336;BME280;33098;52.400;16.880;2022-11-25T00:59:48;100806.01;;;3.53;98.87
24336;BME280;33098;52.400;16.880;2022-11-25T01:02:16;100807.68;;;3.55;99.09
24336;BME280;33098;52.400;16.880;2022-11-25T01:04:44;100810.82;;;3.55;99.07
24336;BME280;33098;52.400;16.880;2022-11-25T01:07:15;100808.58;;;3.50;99.27
24336;BME280;33098;52.400;16.880;2022-11-25T01:09:42;100803.73;;;3.44;99.26
24336;BME280;33098;52.400;16.880;2022-11-25T01:12:08;100803.09;;;3.47;99.49
24336;BME280;33098;52.400;16.880;2022-11-25T01:14:35;100799.91;;;3.39;99.31
24336;BME280;33098;52.400;16.880;2022-11-25T01:17:02;100808.75;;;3.33;99.48
24336;BME280;33098;52.400;16.880;2022-11-25T01:19:29;100807.52;;;3.37;99.87
24336;BME280;33098;52.400;16.880;2022-11-25T01:21:56;100809.03;;;3.35;99.94
24336;BME280;33098;52.400;16.880;2022-11-25T01:24:22;100807.27;;;3.39;100.00
24336;BME280;33098;52.400;16.880;2022-11-25T01:26:53;100819.92;;;3.39;100.00
24336;BME280;33098;52.400;16.880;2022-11-25T01:29:21;100821.70;;;3.30;100.00
24336;BME280;33098;52.400;16.880;2022-11-25T01:31:49;100823.70;;;3.28;100.00
24336;BME280;33098;52.400;16.880;2022-11-25T01:34:18;100824.08;;;3.28;100.00
24336;BME280;33098;52.400;16.880;2022-11-25T01:36:45;100827.30;;;3.26;100.00
24336;BME280;33098;52.400;16.880;2022-11-25T01:39:15;100830.37;;;3.11;100.00
24336;BME280;33098;52.400;16.880;2022-11-25T01:41:42;100832.89;;;2.92;100.00
24336;BME280;33098;52.400;16.880;2022-11-25T01:44:20;100830.95;;;2.84;100.00
24336;BME280;33098;52.400;16.880;2022-11-25T01:46:54;100828.48;;;2.80;100.00
24336;BME280;33098;52.400;16.880;2022-11-25T01:50:01;100826.33;;;2.86;100.00
24336;BME280;33098;52.400;16.880;2022-11-25T01:52:32;100823.40;;;2.97;100.00
24336;BME280;33098;52.400;16.880;2022-11-25T01:57:34;100818.61;;;3.03;100.00
24336;BME280;33098;52.400;16.880;2022-11-25T02:00:04;100823.58;;;3.10;100.00
24336;BME280;33098;52.400;16.880;2022-11-25T02:02:44;100826.87;;;3.16;100.00
24336;BME280;33098;52.400;16.880;2022-11-25T02:05:15;100822.52;;;3.15;100.00
24336;BME280;33098;52.400;16.880;2022-11-25T02:07:43;100821.02;;;3.17;100.00
24336;BME280;33098;52.400;16.880;2022-11-25T02:10:18;100822.54;;;3.27;100.00
24336;BME280;33098;52.400;16.880;2022-11-25T02:12:48;100821.85;;;3.35;100.00
24336;BME280;33098;52.400;16.880;2022-11-25T02:15:15;100827.14;;;3.42;100.00
24336;BME280;33098;52.400;16.880;2022-11-25T02:17:43;100829.70;;;3.48;100.00
24336;BME280;33098;52.400;16.880;2022-11-25T02:20:11;100831.15;;;3.47;100.00
24336;BME280;33098;52.400;16.880;2022-11-25T02:23:11;100828.80;;;3.49;100.00
24336;BME280;33098;52.400;16.880;2022-11-25T02:25:44;100826.31;;;3.58;100.00
24336;BME280;33098;52.400;16.880;2022-11-25T02:28:18;100827.52;;;3.67;100.00
24336;BME280;33098;52.400;16.880;2022-11-25T02:30:45;100831.39;;;3.74;100.00
24336;BME280;33098;52.400;16.880;2022-11-25T02:33:13;100835.73;;;3.79;100.00
24336;BME280;33098;52.400;16.880;2022-11-25T02:35:42;100839.94;;;3.87;100.00
24336;BME280;33098;52.400;16.880;2022-11-25T02:38:19;100838.46;;;3.89;100.00
24336;BME280;33098;52.400;16.880;2022-11-25T02:40:55;100832.50;;;3.81;100.00
24336;BME280;33098;52.400;16.880;2022-11-25T02:43:24;100827.71;;;3.78;100.00
24336;BME280;33098;52.400;16.880;2022-11-25T02:45:59;100822.98;;;3.74;100.00
24336;BME280;33098;52.400;16.880;2022-11-25T02:48:29;100824.52;;;3.55;100.00
24336;BME280;33098;52.400;16.880;2022-11-25T02:50:57;100825.23;;;3.38;99.98
24336;BME280;33098;52.400;16.880;2022-11-25T02:53:24;100825.80;;;3.41;100.00
24336;BME280;33098;52.400;16.880;2022-11-25T02:55:51;100827.73;;;3.41;100.00
24336;BME280;33098;52.400;16.880;2022-11-25T02:58:18;100821.13;;;3.44;100.00
24336;BME280;33098;52.400;16.880;2022-11-25T03:00:44;100819.67;;;3.53;100.00
24336;BME280;33098;52.400;16.880;2022-11-25T03:03:12;100828.14;;;3.44;100.00
24336;BME280;33098;52.400;16.880;2022-11-25T03:05:39;100834.56;;;3.33;100.00
24336;BME280;33098;52.400;16.880;2022-11-25T03:08:06;100833.88;;;3.20;99.96
24336;BME280;33098;52.400;16.880;2022-11-25T03:10:37;100838.67;;;3.14;99.97
24336;BME280;33098;52.400;16.880;2022-11-25T03:13:05;100838.96;;;3.16;100.00
24336;BME280;33098;52.400;16.880;2022-11-25T03:15:32;100834.40;;;3.24;100.00
24336;BME280;33098;52.400;16.880;2022-11-25T03:18:00;100836.80;;;3.38;100.00
24336;BME280;33098;52.400;16.880;2022-11-25T03:20:28;100835.65;;;3.36;100.00
24336;BME280;33098;52.400;16.880;2022-11-25T03:22:55;100835.47;;;3.28;100.00
24336;BME280;33098;52.400;16.880;2022-11-25T03:25:24;100837.70;;;3.25;100.00
24336;BME280;33098;52.400;16.880;2022-11-25T03:27:50;100836.22;;;3.27;100.00
24336;BME280;33098;52.400;16.880;2022-11-25T03:30:20;100836.25;;;3.35;100.00
24336;BME280;33098;52.400;16.880;2022-11-25T03:32:47;100838.97;;;3.32;100.00
24336;BME280;33098;52.400;16.880;2022-11-25T03:35:14;100840.55;;;3.28;100.00
24336;BME280;33098;52.400;16.880;2022-11-25T03:37:43;100838.93;;;3.21;100.00
24336;BME280;33098;52.400;16.880;2022-11-25T03:40:13;100835.48;;;3.24;100.00
24336;BME280;33098;52.400;16.880;2022-11-25T03:42:40;100833.80;;;3.30;100.00
24336;BME280;33098;52.400;16.880;2022-11-25T03:45:09;100836.56;;;3.31;100.00
24336;BME280;33098;52.400;16.880;2022-11-25T03:47:40;100840.17;;;3.33;100.00
24336;BME280;33098;52.400;16.880;2022-11-25T03:50:07;100833.73;;;3.27;100.00
24336;BME280;33098;52.400;16.880;2022-11-25T03:52:35;100833.18;;;3.24;100.00
24336;BME280;33098;52.400;16.880;2022-11-25T03:55:02;100840.76;;;3.27;100.00
24336;BME280;33098;52.400;16.880;2022-11-25T03:57:32;100843.95;;;3.22;100.00
24336;BME280;33098;52.400;16.880;2022-11-25T03:59:59;100835.92;;;3.26;100.00
24336;BME280;33098;52.400;16.880;2022-11-25T04:02:28;100840.16;;;3.37;100.00
24336;BME280;33098;52.400;16.880;2022-11-25T04:04:55;100834.54;;;3.42;100.00
24336;BME280;33098;52.400;16.880;2022-11-25T04:07:22;100829.10;;;3.46;100.00
24336;BME280;33098;52.400;16.880;2022-11-25T04:09:49;100830.20;;;3.53;100.00
24336;BME280;33098;52.400;16.880;2022-11-25T04:12:17;100841.24;;;3.54;100.00
24336;BME280;33098;52.400;16.880;2022-11-25T04:15:06;100831.98;;;3.53;100.00
24336;BME280;33098;52.400;16.880;2022-11-25T04:17:33;100846.10;;;3.55;100.00
24336;BME280;33098;52.400;16.880;2022-11-25T04:20:00;100858.98;;;3.40;100.00
24336;BME280;33098;52.400;16.880;2022-11-25T04:22:28;100857.80;;;3.18;100.00
24336;BME280;33098;52.400;16.880;2022-11-25T04:24:56;100861.11;;;3.15;100.00
24336;BME280;33098;52.400;16.880;2022-11-25T04:27:24;100866.70;;;3.15;100.00
24336;BME280;33098;52.400;16.880;2022-11-25T04:29:51;100868.23;;;3.11;100.00
24336;BME280;33098;52.400;16.880;2022-11-25T04:32:19;100878.59;;;3.17;100.00
24336;BME280;33098;52.400;16.880;2022-11-25T04:34:46;100874.06;;;3.10;100.00
24336;BME280;33098;52.400;16.880;2022-11-25T04:37:13;100875.56;;;3.00;100.00
24336;BME280;33098;52.400;16.880;2022-11-25T04:39:40;100875.33;;;2.92;100.00
24336;BME280;33098;52.400;16.880;2022-11-25T04:42:12;100872.55;;;2.91;100.00
24336;BME280;33098;52.400;16.880;2022-11-25T04:44:58;100871.85;;;2.91;100.00
24336;BME280;33098;52.400;16.880;2022-11-25T04:47:26;100870.33;;;2.90;100.00
24336;BME280;33098;52.400;16.880;2022-11-25T04:49:52;100868.06;;;2.99;100.00
24336;BME280;33098;52.400;16.880;2022-11-25T04:52:20;100875.08;;;2.94;100.00
24336;BME280;33098;52.400;16.880;2022-11-25T04:54:47;100869.05;;;2.82;100.00
24336;BME280;33098;52.400;16.880;2022-11-25T04:57:14;100872.98;;;2.76;100.00
24336;BME280;33098;52.400;16.880;2022-11-25T04:59:42;100868.23;;;2.81;100.00
24336;BME280;33098;52.400;16.880;2022-11-25T05:02:19;100867.05;;;2.89;100.00
24336;BME280;33098;52.400;16.880;2022-11-25T05:04:55;100864.81;;;2.96;100.00
24336;BME280;33098;52.400;16.880;2022-11-25T05:07:24;100864.80;;;3.05;100.00
24336;BME280;33098;52.400;16.880;2022-11-25T05:09:52;100861.83;;;3.19;100.00
24336;BME280;33098;52.400;16.880;2022-11-25T05:12:28;100863.08;;;3.30;100.00
24336;BME280;33098;52.400;16.880;2022-11-25T05:14:56;100864.05;;;3.41;100.00
24336;BME280;33098;52.400;16.880;2022-11-25T05:17:25;100867.44;;;3.48;100.00
24336;BME280;33098;52.400;16.880;2022-11-25T05:19:53;100862.27;;;3.54;100.00
24336;BME280;33098;52.400;16.880;2022-11-25T05:22:22;100861.04;;;3.54;100.00
24336;BME280;33098;52.400;16.880;2022-11-25T05:24:50;100862.84;;;3.57;100.00
24336;BME280;33098;52.400;16.880;2022-11-25T05:27:18;100867.83;;;3.51;100.00
24336;BME280;33098;52.400;16.880;2022-11-25T05:29:45;100875.40;;;3.47;100.00
24336;BME280;33098;52.400;16.880;2022-11-25T05:32:13;100874.22;;;3.41;100.00
24336;BME280;33098;52.400;16.880;2022-11-25T05:34:40;100873.39;;;3.31;100.00
24336;BME280;33098;52.400;16.880;2022-11-25T05:37:08;100878.11;;;3.23;100.00
24336;BME280;33098;52.400;16.880;2022-11-25T05:39:37;100878.59;;;3.20;100.00
24336;BME280;33098;52.400;16.880;2022-11-25T05:42:32;100879.98;;;3.16;100.00
24336;BME280;33098;52.400;16.880;2022-11-25T05:45:01;100882.78;;;3.03;100.00
24336;BME280;33098;52.400;16.880;2022-11-25T05:47:29;100880.50;;;2.94;100.00
24336;BME280;33098;52.400;16.880;2022-11-25T05:49:56;100881.52;;;2.91;100.00
24336;BME280;33098;52.400;16.880;2022-11-25T05:52:23;100879.77;;;2.95;100.00
24336;BME280;33098;52.400;16.880;2022-11-25T05:54:54;100875.59;;;3.03;100.00
24336;BME280;33098;52.400;16.880;2022-11-25T05:57:21;100882.37;;;3.05;100.00
24336;BME280;33098;52.400;16.880;2022-11-25T05:59:58;100887.35;;;3.12;100.00
24336;BME280;33098;52.400;16.880;2022-11-25T06:02:48;100893.15;;;3.11;100.00
24336;BME280;33098;52.400;16.880;2022-11-25T06:05:15;100882.40;;;3.13;100.00
24336;BME280;33098;52.400;16.880;2022-11-25T06:07:42;100881.66;;;3.14;100.00
24336;BME280;33098;52.400;16.880;2022-11-25T06:10:10;100884.88;;;3.04;100.00
24336;BME280;33098;52.400;16.880;2022-11-25T06:12:38;100882.11;;;3.02;100.00
24336;BME280;33098;52.400;16.880;2022-11-25T06:15:05;100889.85;;;3.06;100.00
24336;BME280;33098;52.400;16.880;2022-11-25T06:17:33;100887.21;;;3.10;100.00
24336;BME280;33098;52.400;16.880;2022-11-25T06:20:19;100895.34;;;3.13;100.00
24336;BME280;33098;52.400;16.880;2022-11-25T06:22:45;100903.92;;;3.05;100.00
24336;BME280;33098;52.400;16.880;2022-11-25T06:25:12;100907.75;;;3.05;100.00
24336;BME280;33098;52.400;16.880;2022-11-25T06:27:40;100901.92;;;3.11;100.00
24336;BME280;33098;52.400;16.880;2022-11-25T06:30:07;100904.11;;;3.22;100.00
24336;BME280;33098;52.400;16.880;2022-11-25T06:32:34;100912.61;;;3.25;100.00
24336;BME280;33098;52.400;16.880;2022-11-25T06:35:15;100918.96;;;3.24;100.00
24336;BME280;33098;52.400;16.880;2022-11-25T06:37:52;100916.98;;;3.25;100.00
24336;BME280;33098;52.400;16.880;2022-11-25T06:40:18;100916.88;;;3.27;100.00
24336;BME280;33098;52.400;16.880;2022-11-25T06:42:45;100918.17;;;3.26;100.00
24336;BME280;33098;52.400;16.880;2022-11-25T06:45:12;100926.55;;;3.31;100.00
24336;BME280;33098;52.400;16.880;2022-11-25T06:47:38;100928.11;;;3.32;100.00
24336;BME280;33098;52.400;16.880;2022-11-25T06:50:05;100928.98;;;3.23;100.00
24336;BME280;33098;52.400;16.880;2022-11-25T06:52:32;100925.92;;;3.30;100.00
24336;BME280;33098;52.400;16.880;2022-11-25T06:54:59;100920.64;;;3.38;100.00
24336;BME280;33098;52.400;16.880;2022-11-25T06:57:26;100922.18;;;3.35;100.00
24336;BME280;33098;52.400;16.880;2022-11-25T06:59:52;100924.42;;;3.36;100.00
24336;BME280;33098;52.400;16.880;2022-11-25T07:02:19;100927.88;;;3.42;100.00
24336;BME280;33098;52.400;16.880;2022-11-25T07:04:45;100933.91;;;3.40;100.00
24336;BME280;33098;52.400;16.880;2022-11-25T07:07:12;100932.37;;;3.35;100.00
24336;BME280;33098;52.400;16.880;2022-11-25T07:09:39;100932.58;;;3.25;100.00
24336;BME280;33098;52.400;16.880;2022-11-25T07:12:14;100933.03;;;3.31;100.00
24336;BME280;33098;52.400;16.880;2022-11-25T07:14:40;100936.18;;;3.32;100.00
24336;BME280;33098;52.400;16.880;2022-11-25T07:17:07;100941.05;;;3.24;100.00
24336;BME280;33098;52.400;16.880;2022-11-25T07:19:34;100939.67;;;3.19;100.00
24336;BME280;33098;52.400;16.880;2022-11-25T07:22:01;100933.52;;;3.28;100.00
24336;BME280;33098;52.400;16.880;2022-11-25T07:24:28;100936.16;;;3.37;100.00
24336;BME280;33098;52.400;16.880;2022-11-25T07:26:54;100945.15;;;3.35;100.00
24336;BME280;33098;52.400;16.880;2022-11-25T07:29:21;100959.46;;;3.33;100.00
24336;BME280;33098;52.400;16.880;2022-11-25T07:31:48;100961.80;;;3.32;100.00
24336;BME280;33098;52.400;16.880;2022-11-25T07:34:17;100958.90;;;3.34;100.00
24336;BME280;33098;52.400;16.880;2022-11-25T07:36:46;100953.92;;;3.35;100.00
24336;BME280;33098;52.400;16.880;2022-11-25T07:39:21;100954.86;;;3.34;100.00
24336;BME280;33098;52.400;16.880;2022-11-25T07:41:49;100960.31;;;3.29;100.00
24336;BME280;33098;52.400;16.880;2022-11-25T07:44:16;100959.27;;;3.20;100.00
24336;BME280;33098;52.400;16.880;2022-11-25T07:46:50;100962.21;;;3.26;100.00
24336;BME280;33098;52.400;16.880;2022-11-25T07:49:19;100958.99;;;3.32;100.00
24336;BME280;33098;52.400;16.880;2022-11-25T07:51:51;100960.33;;;3.34;100.00
24336;BME280;33098;52.400;16.880;2022-11-25T07:54:20;100960.27;;;3.35;100.00
24336;BME280;33098;52.400;16.880;2022-11-25T07:56:47;100959.23;;;3.47;100.00
24336;BME280;33098;52.400;16.880;2022-11-25T07:59:19;100961.89;;;3.64;100.00
24336;BME280;33098;52.400;16.880;2022-11-25T08:01:51;100963.23;;;3.62;100.00
24336;BME280;33098;52.400;16.880;2022-11-25T08:04:19;100967.11;;;3.57;100.00
24336;BME280;33098;52.400;16.880;2022-11-25T08:06:47;100970.81;;;3.52;100.00
24336;BME280;33098;52.400;16.880;2022-11-25T08:09:20;100973.11;;;3.51;100.00
24336;BME280;33098;52.400;16.880;2022-11-25T08:11:47;100973.42;;;3.61;100.00
24336;BME280;33098;52.400;16.880;2022-11-25T08:14:15;100976.91;;;3.75;100.00
24336;BME280;33098;52.400;16.880;2022-11-25T08:16:42;100982.98;;;3.85;100.00
24336;BME280;33098;52.400;16.880;2022-11-25T08:19:12;100984.46;;;3.87;100.00
24336;BME280;33098;52.400;16.880;2022-11-25T08:21:39;100982.63;;;3.93;100.00
24336;BME280;33098;52.400;16.880;2022-11-25T08:24:06;100979.50;;;3.97;100.00
24336;BME280;33098;52.400;16.880;2022-11-25T08:26:34;100978.87;;;4.03;100.00
24336;BME280;33098;52.400;16.880;2022-11-25T08:29:06;100977.34;;;4.11;100.00
24336;BME280;33098;52.400;16.880;2022-11-25T08:31:35;100976.91;;;4.16;100.00
24336;BME280;33098;52.400;16.880;2022-11-25T08:34:04;100977.78;;;4.00;100.00
24336;BME280;33098;52.400;16.880;2022-11-25T08:36:33;100974.64;;;3.91;99.96
24336;BME280;33098;52.400;16.880;2022-11-25T08:39:03;100974.16;;;4.07;100.00
24336;BME280;33098;52.400;16.880;2022-11-25T08:41:33;100975.63;;;4.14;100.00
24336;BME280;33098;52.400;16.880;2022-11-25T08:44:03;100979.61;;;4.11;100.00
24336;BME280;33098;52.400;16.880;2022-11-25T08:46:33;100982.00;;;4.08;99.98
24336;BME280;33098;52.400;16.880;2022-11-25T08:49:03;100975.73;;;4.11;100.00
24336;BME280;33098;52.400;16.880;2022-11-25T08:51:32;100982.31;;;4.21;100.00
24336;BME280;33098;52.400;16.880;2022-11-25T08:53:59;100988.26;;;4.26;100.00
24336;BME280;33098;52.400;16.880;2022-11-25T08:56:27;100990.81;;;4.28;100.00
24336;BME280;33098;52.400;16.880;2022-11-25T08:58:54;100986.64;;;4.31;99.98
24336;BME280;33098;52.400;16.880;2022-11-25T09:01:22;100990.35;;;4.22;99.60
24336;BME280;33098;52.400;16.880;2022-11-25T09:03:53;100985.33;;;4.17;99.51
24336;BME280;33098;52.400;16.880;2022-11-25T09:06:22;100988.25;;;4.19;99.60
24336;BME280;33098;52.400;16.880;2022-11-25T09:08:49;100983.98;;;4.23;99.76
24336;BME280;33098;52.400;16.880;2022-11-25T09:11:16;100991.70;;;4.35;99.93
24336;BME280;33098;52.400;16.880;2022-11-25T09:13:43;100993.61;;;4.32;99.59
24336;BME280;33098;52.400;16.880;2022-11-25T09:16:10;100990.15;;;4.27;99.34
24336;BME280;33098;52.400;16.880;2022-11-25T09:18:37;100994.48;;;4.16;99.16
24336;BME280;33098;52.400;16.880;2022-11-25T09:21:09;100998.61;;;4.14;99.21
24336;BME280;33098;52.400;16.880;2022-11-25T09:23:37;100997.61;;;4.13;99.42
24336;BME280;33098;52.400;16.880;2022-11-25T09:26:05;100993.03;;;4.22;99.65
24336;BME280;33098;52.400;16.880;2022-11-25T09:28:33;100991.64;;;4.21;99.67
24336;BME280;33098;52.400;16.880;2022-11-25T09:31:07;100989.85;;;4.22;99.51
24336;BME280;33098;52.400;16.880;2022-11-25T09:33:35;100988.89;;;4.19;99.48
24336;BME280;33098;52.400;16.880;2022-11-25T09:36:02;100989.45;;;4.06;98.84
24336;BME280;33098;52.400;16.880;2022-11-25T09:38:29;100989.20;;;4.00;99.10
24336;BME280;33098;52.400;16.880;2022-11-25T09:41:01;100989.70;;;4.04;99.28
24336;BME280;33098;52.400;16.880;2022-11-25T09:43:43;100993.63;;;3.99;99.23
24336;BME280;33098;52.400;16.880;2022-11-25T09:49:26;100993.46;;;4.11;99.77
24336;BME280;33098;52.400;16.880;2022-11-25T09:52:08;100994.42;;;4.05;99.60
24336;BME280;33098;52.400;16.880;2022-11-25T09:54:41;100991.03;;;4.06;99.67
24336;BME280;33098;52.400;16.880;2022-11-25T10:02:27;100990.83;;;4.40;100.00
24336;BME280;33098;52.400;16.880;2022-11-25T10:05:07;100994.02;;;4.39;99.85
24336;BME280;33098;52.400;16.880;2022-11-25T10:07:46;100992.48;;;4.38;99.79
24336;BME280;33098;52.400;16.880;2022-11-25T10:10:25;100992.99;;;4.47;99.98
24336;BME280;33098;52.400;16.880;2022-11-25T10:12:55;100989.48;;;4.50;99.76
24336;BME280;33098;52.400;16.880;2022-11-25T10:15:29;100992.89;;;4.57;99.72
24336;BME280;33098;52.400;16.880;2022-11-25T10:18:02;100990.73;;;4.57;99.57
24336;BME280;33098;52.400;16.880;2022-11-25T10:20:34;100992.98;;;4.66;99.48
24336;BME280;33098;52.400;16.880;2022-11-25T10:23:04;100996.00;;;4.58;98.88
24336;BME280;33098;52.400;16.880;2022-11-25T10:25:38;101001.35;;;4.52;98.69
24336;BME280;33098;52.400;16.880;2022-11-25T10:28:22;101001.79;;;4.62;98.95
24336;BME280;33098;52.400;16.880;2022-11-25T10:31:15;101003.13;;;4.64;98.73
24336;BME280;33098;52.400;16.880;2022-11-25T10:33:48;101004.52;;;4.68;98.80
24336;BME280;33098;52.400;16.880;2022-11-25T10:36:37;101010.30;;;4.77;98.88
24336;BME280;33098;52.400;16.880;2022-11-25T10:39:16;101004.76;;;4.70;98.75
24336;BME280;33098;52.400;16.880;2022-11-25T10:41:55;101006.23;;;4.81;99.06
24336;BME280;33098;52.400;16.880;2022-11-25T10:44:31;101008.79;;;4.90;99.08
24336;BME280;33098;52.400;16.880;2022-11-25T10:49:40;101009.39;;;5.04;99.12
24336;BME280;33098;52.400;16.880;2022-11-25T10:52:11;101014.09;;;5.17;99.06
24336;BME280;33098;52.400;16.880;2022-11-25T10:54:39;101019.11;;;5.15;98.73
24336;BME280;33098;52.400;16.880;2022-11-25T10:57:19;101016.98;;;5.15;98.61
24336;BME280;33098;52.400;16.880;2022-11-25T10:59:57;101017.31;;;5.19;98.60
24336;BME280;33098;52.400;16.880;2022-11-25T11:02:30;101018.91;;;5.26;98.67
24336;BME280;33098;52.400;16.880;2022-11-25T11:07:43;101016.31;;;5.44;98.82
24336;BME280;33098;52.400;16.880;2022-11-25T11:15:29;101011.29;;;5.43;97.93
24336;BME280;33098;52.400;16.880;2022-11-25T11:17:58;101010.14;;;5.44;97.93
24336;BME280;33098;52.400;16.880;2022-11-25T11:20:30;101010.91;;;5.50;97.84
24336;BME280;33098;52.400;16.880;2022-11-25T11:25:33;101015.19;;;5.53;97.99
24336;BME280;33098;52.400;16.880;2022-11-25T11:28:02;101010.67;;;5.63;98.16
24336;BME280;33098;52.400;16.880;2022-11-25T11:30:31;101007.17;;;5.69;98.11
24336;BME280;33098;52.400;16.880;2022-11-25T11:36:12;101009.34;;;5.72;97.69
24336;BME280;33098;52.400;16.880;2022-11-25T11:38:54;101015.77;;;5.73;97.61
24336;BME280;33098;52.400;16.880;2022-11-25T11:41:35;101016.52;;;5.76;97.71
24336;BME280;33098;52.400;16.880;2022-11-25T11:49:59;101012.43;;;5.95;97.60
24336;BME280;33098;52.400;16.880;2022-11-25T11:52:57;101013.14;;;5.98;97.56
24336;BME280;33098;52.400;16.880;2022-11-25T11:58:36;101011.92;;;6.13;97.49
24336;BME280;33098;52.400;16.880;2022-11-25T12:04:12;101012.78;;;6.20;97.00
24336;BME280;33098;52.400;16.880;2022-11-25T12:06:41;101005.16;;;6.14;96.68
24336;BME280;33098;52.400;16.880;2022-11-25T12:09:19;101005.13;;;6.18;96.88
24336;BME280;33098;52.400;16.880;2022-11-25T12:11:52;101003.69;;;6.25;96.96
24336;BME280;33098;52.400;16.880;2022-11-25T12:14:44;101004.38;;;6.29;96.77
24336;BME280;33098;52.400;16.880;2022-11-25T12:17:17;101006.38;;;6.28;96.45
24336;BME280;33098;52.400;16.880;2022-11-25T12:20:08;101001.38;;;6.32;96.60
24336;BME280;33098;52.400;16.880;2022-11-25T12:22:48;101001.42;;;6.35;96.30
24336;BME280;33098;52.400;16.880;2022-11-25T12:25:22;101002.04;;;6.34;96.24
24336;BME280;33098;52.400;16.880;2022-11-25T12:27:58;101000.80;;;6.33;96.08
24336;BME280;33098;52.400;16.880;2022-11-25T12:30:37;100998.73;;;6.33;96.02
24336;BME280;33098;52.400;16.880;2022-11-25T12:33:20;100996.79;;;6.36;95.88
24336;BME280;33098;52.400;16.880;2022-11-25T12:35:59;100999.33;;;6.34;95.87
24336;BME280;33098;52.400;16.880;2022-11-25T12:38:52;100996.25;;;6.47;96.10
24336;BME280;33098;52.400;16.880;2022-11-25T12:41:36;100994.11;;;6.50;95.90
24336;BME280;33098;52.400;16.880;2022-11-25T12:44:43;100994.75;;;6.62;96.19
24336;BME280;33098;52.400;16.880;2022-11-25T12:47:10;100992.19;;;6.60;95.45
24336;BME280;33098;52.400;16.880;2022-11-25T12:49:46;101000.14;;;6.50;95.02
24336;BME280;33098;52.400;16.880;2022-11-25T12:52:43;101004.77;;;6.46;95.05
24336;BME280;33098;52.400;16.880;2022-11-25T12:55:21;101001.73;;;6.46;95.04
24336;BME280;33098;52.400;16.880;2022-11-25T13:04:09;101004.77;;;6.46;95.18
24336;BME280;33098;52.400;16.880;2022-11-25T13:12:50;101019.94;;;6.49;95.09
24336;BME280;33098;52.400;16.880;2022-11-25T13:15:26;101017.29;;;6.52;95.33
24336;BME280;33098;52.400;16.880;2022-11-25T13:18:01;101015.76;;;6.58;95.26
24336;BME280;33098;52.400;16.880;2022-11-25T13:25:38;101028.35;;;6.60;95.21
24336;BME280;33098;52.400;16.880;2022-11-25T13:28:43;101031.58;;;6.56;95.01
24336;BME280;33098;52.400;16.880;2022-11-25T13:36:48;101032.08;;;6.53;94.99
24336;BME280;33098;52.400;16.880;2022-11-25T13:39:38;101036.47;;;6.50;94.91
24336;BME280;33098;52.400;16.880;2022-11-25T13:42:20;101032.02;;;6.44;94.75
24336;BME280;33098;52.400;16.880;2022-11-25T13:44:52;101030.81;;;6.40;94.75
24336;BME280;33098;52.400;16.880;2022-11-25T13:47:27;101030.83;;;6.36;94.77
24336;BME280;33098;52.400;16.880;2022-11-25T13:50:05;101031.53;;;6.40;95.05
24336;BME280;33098;52.400;16.880;2022-11-25T13:55:20;101029.43;;;6.39;94.81
24336;BME280;33098;52.400;16.880;2022-11-25T14:01:02;101040.46;;;6.30;94.82
24336;BME280;33098;52.400;16.880;2022-11-25T14:08:56;101044.33;;;6.20;94.99
24336;BME280;33098;52.400;16.880;2022-11-25T14:16:48;101049.34;;;6.32;95.71
24336;BME280;33098;52.400;16.880;2022-11-25T14:19:45;101048.59;;;6.40;95.81
24336;BME280;33098;52.400;16.880;2022-11-25T14:25:49;101048.29;;;6.47;95.80
24336;BME280;33098;52.400;16.880;2022-11-25T14:28:23;101053.38;;;6.47;95.71
24336;BME280;33098;52.400;16.880;2022-11-25T14:30:54;101052.58;;;6.45;95.56